Time;durP1;ratioP1;P1;durP2;ratioP2;P2;SDS_P1;SDS_P2;PMS_P1;PMS_P2;Temp;Humidity;BMP_temperature;BMP_pressure;BME280_temperature;BME280_humidity;BME280_pressure;Samples;Min_cycle;Max_cycle;Signal;HPM_P1;HPM_P2
2021/12/08 00:00:10;;;;;;;3.30;1.10;;;2.20;99.90;;;;;;5085187;28;20209;-59
2021/12/08 00:02:38;;;;;;;2.23;1.30;;;2.20;99.90;;;;;;5085712;28;20611;-59
2021/12/08 00:05:06;;;;;;;1.60;1.00;;;2.20;99.90;;;;;;5085379;28;20317;-59
2021/12/08 00:07:33;;;;;;;1.63;1.13;;;2.20;99.90;;;;;;5085370;28;20284;-59
2021/12/08 00:10:03;;;;;;;0.87;0.87;;;2.20;99.90;;;;;;5084783;28;20221;-58
2021/12/08 00:15:14;;;;;;;1.07;0.90;;;2.20;99.90;;;;;;5084309;28;20263;-59
2021/12/08 00:17:43;;;;;;;1.27;1.00;;;2.20;99.90;;;;;;5085391;28;20217;-59
2021/12/08 00:20:10;;;;;;;2.97;1.00;;;2.20;99.90;;;;;;5085367;28;20212;-59
2021/12/08 00:22:37;;;;;;;2.40;1.20;;;2.20;99.90;;;;;;5085445;28;20229;-61
2021/12/08 00:25:05;;;;;;;1.77;1.43;;;2.20;99.90;;;;;;5084090;28;20583;-59
2021/12/08 00:27:32;;;;;;;1.20;0.90;;;2.20;99.90;;;;;;5085336;28;20201;-59
2021/12/08 00:29:59;;;;;;;2.23;1.03;;;2.20;99.90;;;;;;5084777;28;20308;-59
2021/12/08 00:32:29;;;;;;;1.30;0.93;;;2.20;99.90;;;;;;5085003;28;20734;-59
2021/12/08 00:34:57;;;;;;;1.33;1.23;;;2.20;99.90;;;;;;5084953;28;20209;-59
2021/12/08 00:37:24;;;;;;;1.77;1.30;;;2.20;99.90;;;;;;5084859;28;20255;-59
2021/12/08 00:39:52;;;;;;;3.37;1.57;;;2.20;99.90;;;;;;5084956;28;20200;-59
2021/12/08 00:42:19;;;;;;;1.90;1.37;;;2.20;99.90;;;;;;5084446;28;20215;-59
2021/12/08 00:44:46;;;;;;;1.90;1.23;;;2.10;99.90;;;;;;5083959;28;20268;-58
2021/12/08 00:47:13;;;;;;;1.20;0.90;;;2.10;99.90;;;;;;5085040;28;20269;-59
2021/12/08 00:49:40;;;;;;;2.53;1.20;;;2.10;99.90;;;;;;5084960;28;20317;-59
2021/12/08 00:52:09;;;;;;;4.27;1.10;;;2.10;99.90;;;;;;5085230;28;20232;-59
2021/12/08 00:54:36;;;;;;;1.47;1.10;;;2.10;99.90;;;;;;5084405;28;20201;-59
2021/12/08 00:57:03;;;;;;;1.50;0.90;;;2.10;99.90;;;;;;5084216;28;20619;-59
2021/12/08 00:59:30;;;;;;;2.57;1.00;;;2.10;99.90;;;;;;5084481;28;20301;-59
2021/12/08 01:02:02;;;;;;;2.27;1.10;;;2.00;99.90;;;;;;5084994;28;20288;-59
2021/12/08 01:04:29;;;;;;;2.30;0.90;;;2.00;99.90;;;;;;5084843;28;21236;-59
2021/12/08 01:06:56;;;;;;;1.90;1.00;;;2.00;99.90;;;;;;5085597;28;20284;-59
2021/12/08 01:09:24;;;;;;;0.90;0.90;;;2.00;99.90;;;;;;5088893;28;20296;-58
2021/12/08 01:11:51;;;;;;;1.67;1.07;;;2.00;99.90;;;;;;5088358;28;20212;-59
2021/12/08 01:14:18;;;;;;;2.03;1.40;;;2.00;99.90;;;;;;5088384;28;20269;-59
2021/12/08 01:16:47;;;;;;;2.47;1.10;;;1.90;99.90;;;;;;5088391;28;20252;-59
2021/12/08 01:19:14;;;;;;;3.90;0.90;;;1.90;99.90;;;;;;5088704;28;20680;-59
2021/12/08 01:21:40;;;;;;;1.53;0.90;;;1.80;99.90;;;;;;5088752;28;20698;-60
2021/12/08 01:24:07;;;;;;;1.77;1.00;;;1.80;99.90;;;;;;5088103;28;20284;-58
2021/12/08 01:26:36;;;;;;;1.20;0.97;;;1.80;99.90;;;;;;5087936;28;20232;-60
2021/12/08 01:29:03;;;;;;;1.43;1.00;;;1.80;99.90;;;;;;5087534;28;20273;-58
2021/12/08 01:31:30;;;;;;;2.33;1.00;;;1.80;99.90;;;;;;5087899;28;20203;-58
2021/12/08 01:33:57;;;;;;;1.63;1.30;;;1.90;99.90;;;;;;5087729;28;20235;-58
2021/12/08 01:36:23;;;;;;;4.93;1.03;;;1.80;99.90;;;;;;5087273;28;20280;-58
2021/12/08 01:38:51;;;;;;;1.00;0.80;;;1.80;99.90;;;;;;5088122;28;20220;-59
2021/12/08 01:41:17;;;;;;;1.30;1.10;;;1.80;99.90;;;;;;5087990;28;20240;-59
2021/12/08 01:46:26;;;;;;;1.70;1.13;;;1.80;99.90;;;;;;5087288;28;20198;-59
2021/12/08 01:48:53;;;;;;;2.43;1.00;;;1.80;99.90;;;;;;5088198;28;20221;-59
2021/12/08 01:51:20;;;;;;;1.20;1.10;;;1.80;99.90;;;;;;5088304;28;20211;-59
2021/12/08 01:53:50;;;;;;;1.20;1.10;;;1.70;99.90;;;;;;5087719;28;20236;-59
2021/12/08 01:56:19;;;;;;;2.13;1.17;;;1.70;99.90;;;;;;5087149;28;20217;-59
2021/12/08 01:58:47;;;;;;;1.23;0.90;;;1.70;99.90;;;;;;5087448;28;20204;-59
2021/12/08 02:01:17;;;;;;;1.40;1.10;;;1.70;99.90;;;;;;5087937;28;20204;-59
2021/12/08 02:03:45;;;;;;;1.13;1.03;;;1.70;99.90;;;;;;5087999;28;20228;-59
2021/12/08 02:06:13;;;;;;;2.30;1.10;;;1.80;99.90;;;;;;5087663;28;20209;-59
2021/12/08 02:08:40;;;;;;;1.53;1.00;;;1.80;99.90;;;;;;5087713;28;20268;-60
2021/12/08 02:11:07;;;;;;;2.20;1.17;;;1.70;99.90;;;;;;5087156;28;20237;-59
2021/12/08 02:13:38;;;;;;;1.53;0.70;;;1.70;99.90;;;;;;5087276;28;20628;-58
2021/12/08 02:16:09;;;;;;;1.13;0.97;;;1.70;99.90;;;;;;5087146;28;20229;-59
2021/12/08 02:18:36;;;;;;;1.03;0.77;;;1.60;99.90;;;;;;5087022;28;20268;-59
2021/12/08 02:21:06;;;;;;;1.20;1.00;;;1.60;99.90;;;;;;5087708;28;20197;-59
2021/12/08 02:23:33;;;;;;;0.87;0.80;;;1.60;99.90;;;;;;5087110;28;20200;-58
2021/12/08 02:26:00;;;;;;;0.63;0.63;;;1.50;99.90;;;;;;5087057;28;20211;-59
2021/12/08 02:28:27;;;;;;;1.60;0.60;;;1.50;99.90;;;;;;5086796;28;20264;-58
2021/12/08 02:30:59;;;;;;;0.80;0.80;;;1.50;99.90;;;;;;5087663;28;20197;-60
2021/12/08 02:47:16;;;;;;;1.00;0.90;;;1.60;99.90;;;;;;5087221;28;20259;-59
2021/12/08 02:49:44;;;;;;;0.80;0.80;;;1.60;99.90;;;;;;5087163;28;20251;-59
2021/12/08 02:52:14;;;;;;;1.07;0.77;;;1.70;99.90;;;;;;5087267;28;20201;-59
2021/12/08 02:54:43;;;;;;;3.07;0.90;;;1.70;99.90;;;;;;5086509;28;20212;-59
2021/12/08 02:57:12;;;;;;;0.60;0.60;;;1.60;99.90;;;;;;5086391;28;20220;-59
2021/12/08 02:59:40;;;;;;;0.80;0.80;;;1.70;99.90;;;;;;5086394;28;20679;-59
2021/12/08 03:02:07;;;;;;;0.87;0.87;;;1.70;99.90;;;;;;5086742;28;20205;-60
2021/12/08 03:04:34;;;;;;;1.17;0.80;;;1.70;99.90;;;;;;5086715;28;20296;-59
2021/12/08 03:07:02;;;;;;;1.07;0.80;;;1.70;99.90;;;;;;5086475;28;20678;-59
2021/12/08 03:09:30;;;;;;;1.43;0.80;;;1.60;99.90;;;;;;5086523;28;20197;-58
2021/12/08 03:11:58;;;;;;;0.97;0.70;;;1.60;99.90;;;;;;5086193;28;20212;-59
2021/12/08 03:14:26;;;;;;;1.00;0.90;;;1.60;99.90;;;;;;5085939;28;20208;-58
2021/12/08 03:16:57;;;;;;;0.60;0.60;;;1.60;99.90;;;;;;5086426;28;20235;-58
2021/12/08 03:19:26;;;;;;;1.13;0.70;;;1.60;99.90;;;;;;5086624;28;20217;-59
2021/12/08 03:21:53;;;;;;;0.70;0.70;;;1.60;99.90;;;;;;5086517;28;20197;-59
2021/12/08 03:24:26;;;;;;;1.00;0.80;;;1.60;99.90;;;;;;5086020;28;20201;-58
2021/12/08 03:27:06;;;;;;;0.80;0.80;;;1.60;99.90;;;;;;5085779;28;20219;-59
2021/12/08 03:29:42;;;;;;;1.33;1.00;;;1.60;99.90;;;;;;5085958;28;20192;-59
2021/12/08 03:32:13;;;;;;;1.37;1.03;;;1.70;99.90;;;;;;5085519;28;20232;-59
2021/12/08 03:34:50;;;;;;;1.00;0.83;;;1.60;99.90;;;;;;5086185;28;20185;-59
2021/12/08 03:37:18;;;;;;;1.20;0.87;;;1.70;99.90;;;;;;5085365;28;20213;-59
2021/12/08 03:39:45;;;;;;;1.33;0.93;;;1.70;99.90;;;;;;5083325;28;20324;-60
2021/12/08 03:42:14;;;;;;;1.10;1.00;;;1.70;99.90;;;;;;5085327;28;20276;-59
2021/12/08 03:44:40;;;;;;;1.50;1.20;;;1.80;99.90;;;;;;5084747;28;20265;-58
2021/12/08 03:47:14;;;;;;;3.47;0.90;;;1.80;99.90;;;;;;5085467;28;20220;-59
2021/12/08 03:49:42;;;;;;;1.50;1.10;;;1.80;99.90;;;;;;5085720;28;20189;-59
2021/12/08 03:52:08;;;;;;;1.23;1.10;;;1.80;99.90;;;;;;5085933;28;20203;-59
2021/12/08 03:54:35;;;;;;;1.50;1.40;;;1.80;99.90;;;;;;5084997;28;20207;-59
2021/12/08 03:57:03;;;;;;;1.20;1.10;;;1.80;99.90;;;;;;5085150;28;20231;-59
2021/12/08 03:59:31;;;;;;;0.90;0.90;;;1.80;99.90;;;;;;5085393;28;20513;-59
2021/12/08 04:01:58;;;;;;;1.20;1.10;;;1.80;99.90;;;;;;5085647;28;20211;-60
2021/12/08 04:04:28;;;;;;;0.80;0.80;;;1.80;99.90;;;;;;5085691;28;20205;-59
2021/12/08 04:06:57;;;;;;;1.27;1.13;;;1.80;99.90;;;;;;5085743;28;20271;-59
2021/12/08 04:09:30;;;;;;;1.53;1.07;;;1.80;99.90;;;;;;5085415;28;20200;-59
2021/12/08 04:11:58;;;;;;;1.03;0.93;;;1.80;99.90;;;;;;5085153;28;20208;-59
2021/12/08 04:14:27;;;;;;;1.00;0.93;;;1.90;99.90;;;;;;5084953;28;20201;-59
2021/12/08 04:17:00;;;;;;;0.97;0.80;;;1.90;99.90;;;;;;5085298;28;20293;-59
2021/12/08 04:19:27;;;;;;;1.27;0.90;;;2.00;99.90;;;;;;5085499;28;20435;-59
2021/12/08 04:21:57;;;;;;;2.10;1.10;;;1.90;99.90;;;;;;5085397;28;20269;-59
2021/12/08 04:24:24;;;;;;;1.10;1.00;;;1.90;99.90;;;;;;5084836;28;20289;-59
2021/12/08 04:26:55;;;;;;;1.33;1.00;;;2.00;99.90;;;;;;5084514;28;20648;-59
2021/12/08 04:29:25;;;;;;;1.13;1.00;;;2.00;99.90;;;;;;5084887;28;20219;-59
2021/12/08 04:31:53;;;;;;;1.13;1.03;;;2.00;99.90;;;;;;5085425;28;20205;-59
2021/12/08 04:34:27;;;;;;;1.00;1.00;;;2.00;99.90;;;;;;5085103;28;20270;-59
2021/12/08 04:36:59;;;;;;;1.57;1.40;;;2.00;99.90;;;;;;5084934;28;20204;-59
2021/12/08 04:39:35;;;;;;;1.67;1.13;;;2.00;99.90;;;;;;5085256;28;20189;-59
2021/12/08 04:42:07;;;;;;;1.37;1.27;;;2.00;99.90;;;;;;5084250;28;20213;-59
2021/12/08 04:44:40;;;;;;;3.70;2.00;;;2.10;99.90;;;;;;5084355;28;20235;-59
2021/12/08 04:47:29;;;;;;;1.33;1.20;;;2.10;99.90;;;;;;5085036;28;20212;-61
2021/12/08 04:52:52;;;;;;;2.23;1.10;;;2.00;99.90;;;;;;5082451;28;20254;-59
2021/12/08 05:04:02;;;;;;;1.13;1.03;;;2.00;99.90;;;;;;5078861;28;20185;-59
2021/12/08 05:06:45;;;;;;;3.40;1.40;;;2.00;99.90;;;;;;5082380;28;20272;-59
2021/12/08 05:09:16;;;;;;;1.50;1.40;;;2.00;99.90;;;;;;5084276;28;20185;-58
2021/12/08 05:11:46;;;;;;;1.60;1.07;;;2.00;99.90;;;;;;5084111;28;20214;-58
2021/12/08 05:14:20;;;;;;;1.97;1.37;;;2.00;99.90;;;;;;5083868;28;20260;-59
2021/12/08 05:16:50;;;;;;;2.70;1.50;;;2.00;99.90;;;;;;5084254;28;20218;-59
2021/12/08 05:19:20;;;;;;;1.90;1.63;;;2.00;99.90;;;;;;5084713;28;20220;-59
2021/12/08 05:21:52;;;;;;;1.60;1.50;;;2.10;99.90;;;;;;5084958;28;20295;-59
2021/12/08 05:24:22;;;;;;;2.83;1.80;;;2.10;99.90;;;;;;5083732;28;20615;-59
2021/12/08 05:26:54;;;;;;;1.90;1.37;;;2.10;99.90;;;;;;5082761;28;20229;-58
2021/12/08 05:29:24;;;;;;;1.60;1.47;;;2.00;99.90;;;;;;5080402;28;20272;-59
2021/12/08 05:31:52;;;;;;;4.00;1.70;;;2.00;99.90;;;;;;5081848;28;20246;-61
2021/12/08 05:34:20;;;;;;;1.53;1.20;;;2.10;99.90;;;;;;5081216;28;20193;-58
2021/12/08 05:36:49;;;;;;;2.57;1.63;;;2.10;99.90;;;;;;5079885;28;20201;-58
2021/12/08 05:39:20;;;;;;;2.13;1.50;;;2.10;99.90;;;;;;5078296;28;20316;-59
2021/12/08 05:41:50;;;;;;;1.37;1.07;;;2.10;99.90;;;;;;5080985;28;20212;-59
2021/12/08 05:44:17;;;;;;;2.00;1.37;;;2.20;99.90;;;;;;5077774;28;20284;-59
2021/12/08 05:46:48;;;;;;;3.00;1.80;;;2.10;99.90;;;;;;5077040;28;20300;-58
2021/12/08 05:49:17;;;;;;;1.93;1.40;;;2.10;99.90;;;;;;5082647;28;20269;-59
2021/12/08 05:51:46;;;;;;;1.90;1.40;;;2.10;99.90;;;;;;5083607;28;20193;-61
2021/12/08 05:54:17;;;;;;;2.23;1.60;;;2.10;99.90;;;;;;5085152;28;20201;-60
2021/12/08 05:56:45;;;;;;;1.90;1.47;;;2.20;99.90;;;;;;5087384;28;20209;-59
2021/12/08 05:59:15;;;;;;;2.27;1.73;;;2.10;99.90;;;;;;5087444;28;20220;-61
2021/12/08 06:01:46;;;;;;;2.93;1.40;;;2.10;99.90;;;;;;5087866;28;20201;-60
2021/12/08 06:04:14;;;;;;;2.67;1.80;;;2.20;99.90;;;;;;5088114;28;20216;-61
2021/12/08 06:06:42;;;;;;;1.93;1.60;;;2.20;99.90;;;;;;5087656;28;20216;-61
2021/12/08 06:09:12;;;;;;;6.67;1.90;;;2.20;99.90;;;;;;5087746;28;20304;-60
2021/12/08 06:11:41;;;;;;;3.93;2.70;;;2.20;99.90;;;;;;5087144;28;20235;-62
2021/12/08 06:14:08;;;;;;;4.67;2.20;;;2.20;99.90;;;;;;5087227;28;20303;-62
2021/12/08 06:16:38;;;;;;;3.13;2.00;;;2.20;99.90;;;;;;5087547;28;20276;-60
2021/12/08 06:19:07;;;;;;;3.33;2.03;;;2.20;99.90;;;;;;5087665;28;20209;-64
2021/12/08 06:21:34;;;;;;;3.47;2.27;;;2.30;99.90;;;;;;5087120;28;20200;-60
2021/12/08 06:24:03;;;;;;;2.47;2.20;;;2.30;99.90;;;;;;5086910;28;20288;-60
2021/12/08 06:26:30;;;;;;;2.67;2.17;;;2.30;99.90;;;;;;5086663;28;20209;-60
2021/12/08 06:29:00;;;;;;;3.90;2.33;;;2.30;99.90;;;;;;5086569;28;20316;-61
2021/12/08 06:31:37;;;;;;;3.97;2.23;;;2.30;99.90;;;;;;5086781;28;20292;-61
2021/12/08 06:34:05;;;;;;;3.43;2.07;;;2.30;99.90;;;;;;5086362;28;20188;-61
2021/12/08 06:36:34;;;;;;;17.67;6.10;;;2.30;99.90;;;;;;5085273;28;20201;-63
2021/12/08 06:39:04;;;;;;;5.47;2.73;;;2.40;99.90;;;;;;5085847;28;20277;-63
2021/12/08 06:41:36;;;;;;;2.27;2.03;;;2.40;99.90;;;;;;5085592;28;20277;-61
2021/12/08 06:44:09;;;;;;;3.20;2.43;;;2.40;99.90;;;;;;5082555;28;20185;-63
2021/12/08 06:46:36;;;;;;;5.27;3.10;;;2.40;99.90;;;;;;5085489;28;20201;-61
2021/12/08 06:49:07;;;;;;;10.93;5.00;;;2.40;99.90;;;;;;5082996;28;20204;-60
2021/12/08 06:51:38;;;;;;;10.67;5.30;;;2.40;99.90;;;;;;5087009;28;20221;-60
2021/12/08 06:54:09;;;;;;;17.77;8.87;;;2.40;99.90;;;;;;5105091;22;20224;-78
2021/12/08 06:56:39;;;;;;;10.07;5.83;;;2.40;99.90;;;;;;5086290;28;20386;-78
2021/12/08 06:59:11;;;;;;;3.10;2.50;;;2.40;99.90;;;;;;5079963;28;20201;-78
2021/12/08 07:01:46;;;;;;;4.60;2.90;;;2.50;99.90;;;;;;5071704;28;20601;-78
2021/12/08 07:04:29;;;;;;;5.77;3.33;;;2.50;99.90;;;;;;5076717;28;20208;-78
2021/12/08 07:07:01;;;;;;;3.17;2.00;;;2.50;99.90;;;;;;5077451;28;20201;-78
2021/12/08 07:09:37;;;;;;;3.20;2.10;;;2.50;99.90;;;;;;5075394;28;20209;-78
2021/12/08 07:12:12;;;;;;;3.40;3.03;;;2.50;99.90;;;;;;5077441;28;20542;-79
2021/12/08 07:14:42;;;;;;;4.70;2.23;;;2.50;99.90;;;;;;5076872;28;20683;-78
2021/12/08 07:17:25;;;;;;;3.10;1.90;;;2.60;99.90;;;;;;5088090;28;20228;-82
2021/12/08 07:20:03;;;;;;;2.00;1.70;;;2.60;99.90;;;;;;5059561;28;20213;-78
2021/12/08 07:22:34;;;;;;;4.93;2.93;;;2.60;99.90;;;;;;5081773;28;20196;-79
2021/12/08 07:25:03;;;;;;;3.77;2.57;;;2.60;99.90;;;;;;5086689;28;20509;-78
2021/12/08 07:27:34;;;;;;;4.07;2.80;;;2.60;99.90;;;;;;5084810;28;20190;-79
2021/12/08 07:30:07;;;;;;;2.57;2.00;;;2.60;99.90;;;;;;5072336;28;20189;-79
2021/12/08 07:32:37;;;;;;;3.63;2.23;;;2.60;99.90;;;;;;5075262;28;20194;-78
2021/12/08 07:35:09;;;;;;;2.63;2.00;;;2.60;99.90;;;;;;5069942;28;20202;-79
2021/12/08 07:37:37;;;;;;;2.40;1.83;;;2.60;99.90;;;;;;5067398;28;20704;-78
2021/12/08 07:40:11;;;;;;;3.63;2.17;;;2.60;99.90;;;;;;5074730;28;20229;-79
2021/12/08 07:42:44;;;;;;;3.47;2.17;;;2.60;99.90;;;;;;5074014;28;20247;-79
2021/12/08 07:45:16;;;;;;;2.43;1.87;;;2.60;99.90;;;;;;5069665;28;20741;-79
2021/12/08 07:47:43;;;;;;;2.93;2.13;;;2.60;99.90;;;;;;5067008;28;20228;-78
2021/12/08 07:50:16;;;;;;;3.20;2.20;;;2.60;99.90;;;;;;5066878;28;20229;-79
2021/12/08 07:52:45;;;;;;;4.03;2.20;;;2.60;99.90;;;;;;5066754;28;20313;-79
2021/12/08 07:55:17;;;;;;;3.83;1.93;;;2.60;99.90;;;;;;5065548;28;20233;-79
2021/12/08 07:57:44;;;;;;;3.13;2.53;;;2.70;99.90;;;;;;5066484;28;20237;-79
2021/12/08 08:00:20;;;;;;;3.23;2.20;;;2.70;99.90;;;;;;5066015;28;20241;-79
2021/12/08 08:02:48;;;;;;;2.77;2.20;;;2.70;99.90;;;;;;5067293;28;20213;-79
2021/12/08 08:05:17;;;;;;;3.63;3.10;;;2.80;99.90;;;;;;5066761;28;20229;-79
2021/12/08 08:07:47;;;;;;;5.67;2.30;;;2.80;99.90;;;;;;5066970;28;20244;-79
2021/12/08 08:10:16;;;;;;;4.03;2.70;;;2.70;99.90;;;;;;5066837;28;20198;-79
2021/12/08 08:12:46;;;;;;;4.80;2.67;;;2.80;99.90;;;;;;5066481;28;20205;-79
2021/12/08 08:15:20;;;;;;;4.30;2.53;;;2.80;99.90;;;;;;5065928;28;20206;-79
2021/12/08 08:17:51;;;;;;;5.40;3.27;;;2.90;99.90;;;;;;5065462;28;20676;-79
2021/12/08 08:20:22;;;;;;;6.07;3.43;;;2.80;99.90;;;;;;5065839;28;20206;-79
2021/12/08 08:22:50;;;;;;;9.03;4.80;;;3.10;99.90;;;;;;5065919;28;20190;-79
2021/12/08 08:25:20;;;;;;;6.43;3.33;;;2.90;99.90;;;;;;5072311;28;20550;-79
2021/12/08 08:27:47;;;;;;;5.87;3.20;;;2.90;99.90;;;;;;5074619;28;20224;-79
2021/12/08 08:30:20;;;;;;;10.37;5.63;;;2.90;99.90;;;;;;5070149;28;20189;-79
2021/12/08 08:32:49;;;;;;;11.73;4.80;;;3.00;99.90;;;;;;5067197;28;20213;-79
2021/12/08 08:35:19;;;;;;;38.47;12.80;;;3.00;99.90;;;;;;5071875;28;20259;-79
2021/12/08 08:37:48;;;;;;;24.03;10.10;;;3.00;99.90;;;;;;5075210;28;20236;-79
2021/12/08 08:40:21;;;;;;;6.97;4.57;;;3.10;99.90;;;;;;5073978;28;20579;-79
2021/12/08 08:42:51;;;;;;;8.40;5.43;;;3.10;99.90;;;;;;5074467;28;20201;-79
2021/12/08 08:45:23;;;;;;;6.10;4.60;;;3.10;99.90;;;;;;5070056;28;20273;-79
2021/12/08 08:47:53;;;;;;;9.20;4.80;;;3.10;99.90;;;;;;5074295;28;20196;-82
2021/12/08 08:50:24;;;;;;;6.97;4.93;;;3.10;99.90;;;;;;5084365;28;20211;-84
2021/12/08 08:52:55;;;;;;;6.23;3.67;;;3.10;99.90;;;;;;5097638;28;20239;-83
2021/12/08 08:55:26;;;;;;;8.90;5.73;;;3.00;99.90;;;;;;5096976;28;20177;-82
2021/12/08 08:57:53;;;;;;;8.80;4.83;;;;;;;;;;5093832;28;20185;-82
2021/12/08 09:00:30;;;;;;;6.17;3.83;;;3.10;99.90;;;;;;5097026;28;20212;-81
2021/12/08 09:03:00;;;;;;;9.93;4.40;;;3.10;99.90;;;;;;5094967;28;20201;-81
2021/12/08 09:05:30;;;;;;;7.33;3.70;;;3.10;99.90;;;;;;5088485;28;20207;-79
2021/12/08 09:07:59;;;;;;;8.00;4.60;;;3.10;99.90;;;;;;5088038;28;20212;-79
2021/12/08 09:10:30;;;;;;;6.80;4.37;;;3.10;99.90;;;;;;5086227;28;20231;-81
2021/12/08 09:13:00;;;;;;;7.70;4.70;;;3.20;99.90;;;;;;5084937;28;20204;-81
2021/12/08 09:15:32;;;;;;;8.63;5.43;;;3.20;99.90;;;;;;5082377;28;20231;-81
2021/12/08 09:18:03;;;;;;;6.97;4.40;;;3.20;99.90;;;;;;5088374;28;20213;-80
2021/12/08 09:20:36;;;;;;;8.17;4.67;;;3.20;99.90;;;;;;5079772;28;20237;-82
2021/12/08 09:23:08;;;;;;;10.97;5.07;;;3.20;99.90;;;;;;5079053;28;20208;-80
2021/12/08 09:25:40;;;;;;;9.03;4.37;;;3.20;99.90;;;;;;5079671;28;20204;-80
2021/12/08 09:28:10;;;;;;;10.53;5.70;;;3.20;99.90;;;;;;5078942;28;20281;-80
2021/12/08 09:30:45;;;;;;;7.67;4.57;;;3.30;99.90;;;;;;5083402;28;20190;-80
2021/12/08 09:33:16;;;;;;;9.43;4.40;;;3.20;99.90;;;;;;5082124;28;20222;-80
2021/12/08 09:35:47;;;;;;;6.97;4.30;;;3.30;99.90;;;;;;5078422;28;20217;-80
2021/12/08 09:38:30;;;;;;;7.30;4.17;;;3.20;99.90;;;;;;5083792;28;20206;-80
2021/12/08 09:41:01;;;;;;;10.63;4.83;;;3.30;99.90;;;;;;5079063;28;20193;-79
2021/12/08 09:43:33;;;;;;;15.43;4.83;;;3.20;99.90;;;;;;5077496;28;20213;-79
2021/12/08 09:46:05;;;;;;;11.37;4.63;;;3.30;99.90;;;;;;5086414;28;20248;-80
2021/12/08 09:48:35;;;;;;;11.73;4.97;;;3.30;99.90;;;;;;5088480;28;20261;-78
2021/12/08 09:51:02;;;;;;;9.27;4.60;;;3.30;99.90;;;;;;5089930;28;20209;-80
2021/12/08 09:53:29;;;;;;;10.00;4.63;;;3.20;99.90;;;;;;5087969;28;20749;-78
2021/12/08 09:55:57;;;;;;;12.43;4.83;;;3.20;99.90;;;;;;5087995;28;20236;-79
2021/12/08 09:58:24;;;;;;;10.67;5.60;;;3.20;99.90;;;;;;5088230;28;20234;-78
2021/12/08 10:00:55;;;;;;;11.50;5.17;;;3.30;99.90;;;;;;5089913;28;20197;-80
2021/12/08 10:03:24;;;;;;;9.13;4.50;;;3.30;99.90;;;;;;5089866;28;20306;-80
2021/12/08 10:05:52;;;;;;;8.83;4.63;;;3.30;99.90;;;;;;5090116;28;20205;-79
2021/12/08 10:08:19;;;;;;;11.77;4.63;;;3.30;99.90;;;;;;5089680;28;20204;-79
2021/12/08 10:10:47;;;;;;;10.43;5.37;;;3.30;99.90;;;;;;5088962;28;20225;-79
2021/12/08 10:13:16;;;;;;;10.03;5.00;;;3.30;99.90;;;;;;5089547;28;20216;-79
2021/12/08 10:15:43;;;;;;;11.43;4.93;;;3.30;99.90;;;;;;5089058;28;20216;-80
2021/12/08 10:18:12;;;;;;;9.17;4.97;;;3.40;99.90;;;;;;5089535;28;20201;-80
2021/12/08 10:20:43;;;;;;;6.30;4.33;;;3.40;99.90;;;;;;5090990;28;20221;-79
2021/12/08 10:23:19;;;;;;;6.77;4.17;;;3.50;99.90;;;;;;5089553;28;20277;-79
2021/12/08 10:25:49;;;;;;;10.93;5.37;;;3.60;99.90;;;;;;5088819;28;20228;-78
2021/12/08 10:28:19;;;;;;;6.23;4.07;;;3.60;99.90;;;;;;5089098;28;20193;-80
2021/12/08 10:30:52;;;;;;;9.13;4.30;;;3.60;99.90;;;;;;5075801;28;20255;-79
2021/12/08 10:33:48;;;;;;;9.87;5.13;;;4.40;99.90;;;;;;5088348;28;20236;-79
2021/12/08 10:36:34;;;;;;;11.20;4.50;;;3.60;99.90;;;;;;5088095;28;20208;-79
2021/12/08 10:39:03;;;;;;;8.80;4.73;;;3.60;99.90;;;;;;5081650;28;20228;-78
2021/12/08 10:41:44;;;;;;;14.87;5.67;;;3.60;99.90;;;;;;5076615;28;20197;-79
2021/12/08 10:44:11;;;;;;;14.10;7.23;;;3.60;99.90;;;;;;5076831;28;20197;-79
2021/12/08 10:46:41;;;;;;;14.07;5.10;;;3.70;99.90;;;;;;5078926;28;20198;-78
2021/12/08 10:49:17;;;;;;;13.00;5.73;;;3.60;99.90;;;;;;5079101;28;20201;-78
2021/12/08 10:54:34;;;;;;;17.17;7.10;;;3.70;99.90;;;;;;5087598;28;20200;-79
2021/12/08 10:57:04;;;;;;;11.30;5.70;;;3.70;99.90;;;;;;5087787;28;20208;-78
2021/12/08 10:59:54;;;;;;;13.33;5.67;;;3.70;99.90;;;;;;5088671;28;20257;-78
2021/12/08 11:02:43;;;;;;;10.63;5.17;;;3.80;99.90;;;;;;5087381;28;20332;-79
2021/12/08 11:05:31;;;;;;;10.60;5.80;;;3.80;99.90;;;;;;5087342;28;20284;-79
2021/12/08 11:08:02;;;;;;;11.47;4.93;;;3.80;99.90;;;;;;5087346;28;20208;-79
2021/12/08 11:10:29;;;;;;;9.70;5.10;;;3.80;99.90;;;;;;5087097;28;20223;-79
2021/12/08 11:12:58;;;;;;;11.00;5.70;;;3.80;99.90;;;;;;5087129;28;20215;-79
2021/12/08 11:15:27;;;;;;;9.53;4.80;;;3.90;99.90;;;;;;5081498;28;20276;-78
2021/12/08 11:18:11;;;;;;;11.43;4.77;;;3.90;99.90;;;;;;5074192;28;20197;-78
2021/12/08 11:20:49;;;;;;;12.83;5.30;;;3.90;99.90;;;;;;5069745;28;20233;-79
2021/12/08 11:23:38;;;;;;;10.77;5.37;;;3.90;99.90;;;;;;5077367;28;20228;-79
2021/12/08 11:26:11;;;;;;;10.60;5.80;;;3.90;99.90;;;;;;5078286;28;20244;-79
2021/12/08 11:28:40;;;;;;;10.23;5.37;;;3.90;99.90;;;;;;5071361;28;20288;-79
2021/12/08 11:31:09;;;;;;;10.27;5.17;;;3.90;99.90;;;;;;5070935;28;20257;-79
2021/12/08 11:33:41;;;;;;;11.67;5.20;;;4.00;99.90;;;;;;5065819;28;20654;-79
2021/12/08 11:36:15;;;;;;;8.23;4.87;;;4.00;99.90;;;;;;5066172;28;20201;-79
2021/12/08 11:38:45;;;;;;;11.57;4.60;;;4.00;99.90;;;;;;5067565;28;20243;-80
2021/12/08 11:41:25;;;;;;;10.73;4.83;;;4.00;99.90;;;;;;5067598;28;20366;-79
2021/12/08 11:43:54;;;;;;;10.23;5.43;;;4.00;99.90;;;;;;5077878;28;20197;-80
2021/12/08 11:46:22;;;;;;;13.27;6.40;;;4.00;99.90;;;;;;5075477;28;20198;-80
2021/12/08 11:49:03;;;;;;;8.57;4.67;;;4.10;99.90;;;;;;5077298;28;20201;-80
2021/12/08 11:51:46;;;;;;;11.20;6.23;;;4.10;99.90;;;;;;5078628;28;20198;-80
2021/12/08 11:54:25;;;;;;;11.13;5.50;;;4.10;99.90;;;;;;5078793;28;20225;-79
2021/12/08 11:56:53;;;;;;;12.00;5.67;;;4.20;99.90;;;;;;5089053;28;20204;-80
2021/12/08 11:59:20;;;;;;;11.00;5.73;;;4.20;99.90;;;;;;5090161;28;20217;-81
2021/12/08 12:01:48;;;;;;;9.03;4.97;;;4.20;99.90;;;;;;5084890;28;20197;-81
2021/12/08 12:04:15;;;;;;;9.10;4.50;;;4.20;99.90;;;;;;5078121;28;20193;-80
2021/12/08 12:06:41;;;;;;;12.43;6.23;;;4.20;99.90;;;;;;5079110;28;20229;-80
2021/12/08 12:09:09;;;;;;;8.70;5.83;;;4.20;99.90;;;;;;5079417;28;20193;-81
2021/12/08 12:11:38;;;;;;;8.63;4.80;;;4.20;99.90;;;;;;5069757;28;20287;-80
2021/12/08 12:14:06;;;;;;;10.33;5.00;;;4.20;99.90;;;;;;5067143;28;20205;-80
2021/12/08 12:16:33;;;;;;;10.00;5.90;;;4.20;99.90;;;;;;5067891;28;20217;-80
2021/12/08 12:19:05;;;;;;;11.17;5.67;;;4.20;99.90;;;;;;5068159;28;20229;-80
2021/12/08 12:21:38;;;;;;;9.47;5.63;;;4.30;99.90;;;;;;5070471;28;20189;-80
2021/12/08 12:24:30;;;;;;;8.87;4.80;;;4.30;99.90;;;;;;5077608;28;20249;-79
2021/12/08 12:27:16;;;;;;;12.90;5.60;;;4.40;99.90;;;;;;5079128;28;20247;-80
2021/12/08 12:29:56;;;;;;;5.67;3.70;;;4.30;99.90;;;;;;5087340;28;20208;-80
2021/12/08 12:32:27;;;;;;;10.10;4.80;;;4.30;99.90;;;;;;5088504;28;20193;-80
2021/12/08 12:35:11;;;;;;;7.10;4.33;;;4.80;99.90;;;;;;5087918;28;20210;-79
2021/12/08 12:37:38;;;;;;;6.03;3.57;;;4.40;99.90;;;;;;5086124;28;20216;-80
2021/12/08 12:40:08;;;;;;;9.47;4.13;;;4.40;99.90;;;;;;5077478;28;20209;-79
2021/12/08 12:42:50;;;;;;;9.50;5.07;;;4.40;99.90;;;;;;5079937;28;20201;-80
2021/12/08 12:45:18;;;;;;;6.40;3.80;;;4.40;99.90;;;;;;5080745;28;20235;-79
2021/12/08 12:48:07;;;;;;;6.90;4.00;;;4.40;99.90;;;;;;5087529;28;20213;-80
2021/12/08 12:50:52;;;;;;;6.20;3.83;;;4.40;99.90;;;;;;5087506;28;20193;-80
2021/12/08 12:53:45;;;;;;;6.87;3.50;;;4.50;99.90;;;;;;5087781;28;20229;-79
2021/12/08 12:56:15;;;;;;;9.13;4.90;;;4.40;99.90;;;;;;5084513;28;20253;-79
2021/12/08 12:58:46;;;;;;;6.33;3.83;;;4.40;99.90;;;;;;5078688;28;20220;-79
2021/12/08 13:01:15;;;;;;;7.13;4.20;;;4.50;99.90;;;;;;5084556;28;20235;-79
2021/12/08 13:03:49;;;;;;;6.67;4.10;;;4.40;99.90;;;;;;5086952;28;20220;-79
2021/12/08 13:06:33;;;;;;;6.70;3.37;;;4.40;99.90;;;;;;5085996;28;20200;-79
2021/12/08 13:09:00;;;;;;;6.07;4.07;;;4.50;99.90;;;;;;5085298;28;20224;-79
2021/12/08 13:11:46;;;;;;;4.50;3.73;;;4.50;99.90;;;;;;5086259;28;20197;-79
2021/12/08 13:14:24;;;;;;;5.00;3.17;;;4.40;99.90;;;;;;5086086;28;20197;-80
2021/12/08 13:17:23;;;;;;;8.93;3.63;;;4.50;99.90;;;;;;5086916;28;20204;-79
2021/12/08 13:19:56;;;;;;;6.93;3.10;;;4.50;99.90;;;;;;5083664;28;20220;-79
2021/12/08 13:22:46;;;;;;;4.33;3.10;;;4.50;99.90;;;;;;5074276;28;20202;-79
2021/12/08 13:25:40;;;;;;;5.37;3.30;;;4.50;99.90;;;;;;5081932;28;20208;-79
2021/12/08 13:28:14;;;;;;;3.70;2.33;;;4.50;99.90;;;;;;5085512;28;20226;-79
2021/12/08 13:30:52;;;;;;;5.20;3.07;;;4.50;99.90;;;;;;5085261;28;20185;-79
2021/12/08 13:33:29;;;;;;;6.23;2.80;;;4.40;99.90;;;;;;5076676;28;20190;-79
2021/12/08 13:36:00;;;;;;;4.60;2.87;;;4.50;99.90;;;;;;5077672;28;20219;-79
2021/12/08 13:38:28;;;;;;;6.53;3.03;;;4.40;99.90;;;;;;5077218;28;20221;-80
2021/12/08 13:40:58;;;;;;;6.63;3.43;;;4.40;99.90;;;;;;5077042;28;20228;-79
2021/12/08 13:43:36;;;;;;;5.87;3.20;;;4.50;99.90;;;;;;5079769;28;20193;-78
2021/12/08 13:46:06;;;;;;;5.10;3.07;;;4.50;99.90;;;;;;5086484;28;20265;-79
2021/12/08 13:48:34;;;;;;;7.47;3.10;;;4.50;99.90;;;;;;5086403;28;20231;-80